Time;durP1;ratioP1;P1;durP2;ratioP2;P2;SDS_P1;SDS_P2;PMS_P1;PMS_P2;Temp;Humidity;BMP_temperature;BMP_pressure;BME280_temperature;BME280_humidity;BME280_pressure;Samples;Min_cycle;Max_cycle;Signal;HPM_P1;HPM_P2
2024/03/13 00:00:37;;;;;;;17.30;9.05;;;5.10;99.90;;;;;;5110341;27;20073;-80
2024/03/13 00:03:24;;;;;;;14.40;9.27;;;5.10;99.90;;;;;;5111158;27;20109;-79
2024/03/13 00:06:12;;;;;;;14.73;8.80;;;5.10;99.90;;;;;;5095872;27;20495;-80
2024/03/13 00:08:59;;;;;;;19.90;9.18;;;5.10;99.90;;;;;;5089519;27;20047;-79
2024/03/13 00:11:47;;;;;;;14.63;8.73;;;5.10;99.90;;;;;;5106915;27;20181;-81
2024/03/13 00:14:35;;;;;;;21.13;9.45;;;5.00;99.90;;;;;;5084218;28;20036;-80
2024/03/13 00:17:22;;;;;;;15.65;8.80;;;5.00;99.90;;;;;;5102568;27;20459;-80
2024/03/13 00:20:12;;;;;;;14.18;8.00;;;5.00;99.90;;;;;;5089301;27;20253;-80
2024/03/13 00:23:01;;;;;;;14.27;8.38;;;5.00;99.90;;;;;;5098898;28;20053;-82
2024/03/13 00:25:49;;;;;;;15.10;8.05;;;5.00;99.90;;;;;;5104823;27;20137;-79
2024/03/13 00:28:38;;;;;;;11.30;7.13;;;5.00;99.90;;;;;;5088694;27;21540;-80
2024/03/13 00:31:27;;;;;;;11.98;7.18;;;5.00;99.90;;;;;;5093537;28;20036;-81
2024/03/13 00:34:15;;;;;;;9.68;6.90;;;5.00;99.90;;;;;;5095929;27;20036;-82
2024/03/13 00:37:05;;;;;;;10.55;7.05;;;5.00;99.90;;;;;;5095150;28;20043;-81
2024/03/13 00:39:53;;;;;;;9.80;6.75;;;5.00;99.90;;;;;;5086608;28;20076;-78
2024/03/13 00:42:42;;;;;;;11.80;6.85;;;4.90;99.90;;;;;;5091647;28;20036;-79
2024/03/13 00:45:33;;;;;;;11.02;6.95;;;4.90;99.90;;;;;;5107740;27;20036;-78
2024/03/13 00:48:21;;;;;;;9.45;6.60;;;4.90;99.90;;;;;;5111770;27;20118;-78
2024/03/13 00:51:09;;;;;;;12.88;6.63;;;4.90;99.90;;;;;;5097210;28;20047;-81
2024/03/13 00:53:57;;;;;;;15.75;6.57;;;4.90;99.90;;;;;;5078727;28;20051;-80
2024/03/13 00:56:51;;;;;;;16.88;6.60;;;4.80;99.90;;;;;;5091249;28;20368;-81
2024/03/13 00:59:39;;;;;;;14.07;6.68;;;4.80;99.90;;;;;;5098517;28;20036;-81
2024/03/13 01:02:27;;;;;;;15.55;5.80;;;4.80;99.90;;;;;;5080348;28;20070;-81
2024/03/13 01:05:16;;;;;;;11.93;5.95;;;4.80;99.90;;;;;;5084340;28;20576;-81
2024/03/13 01:08:05;;;;;;;9.95;5.25;;;4.80;99.90;;;;;;5098768;28;20059;-80
2024/03/13 01:10:55;;;;;;;11.93;5.15;;;4.80;99.90;;;;;;5108877;28;20174;-77
2024/03/13 01:13:44;;;;;;;8.18;4.63;;;4.80;99.90;;;;;;5112577;28;20120;-79
2024/03/13 01:16:34;;;;;;;6.43;4.47;;;4.80;99.90;;;;;;5113524;28;20056;-79
2024/03/13 01:19:24;;;;;;;5.50;3.92;;;4.80;99.90;;;;;;5118637;28;20753;-78
2024/03/13 01:22:13;;;;;;;5.75;4.00;;;4.80;99.90;;;;;;5118356;28;20040;-78
2024/03/13 01:25:00;;;;;;;8.10;4.18;;;4.80;99.90;;;;;;5085747;28;20035;-81
2024/03/13 01:27:48;;;;;;;7.00;4.50;;;4.80;99.90;;;;;;5112932;28;20054;-78
2024/03/13 01:30:36;;;;;;;7.15;4.05;;;4.80;99.90;;;;;;5099536;28;20042;-79
2024/03/13 01:33:24;;;;;;;5.80;4.18;;;4.80;99.90;;;;;;5089690;28;20036;-79
2024/03/13 01:36:12;;;;;;;5.57;3.92;;;4.80;99.90;;;;;;5092801;28;20043;-79
2024/03/13 01:39:01;;;;;;;8.05;4.10;;;4.80;99.90;;;;;;5110952;28;20043;-79
2024/03/13 02:03:48;;;;;;;5.97;3.47;;;4.80;99.90;;;;;;5108829;28;20373;-80
2024/03/13 02:06:36;;;;;;;7.75;3.75;;;4.80;99.90;;;;;;5095190;28;20175;-80
2024/03/13 02:09:25;;;;;;;3.45;2.97;;;4.80;99.90;;;;;;5092055;28;20059;-80
2024/03/13 02:12:12;;;;;;;3.50;2.97;;;4.70;99.90;;;;;;5105590;28;20044;-81
2024/03/13 02:15:00;;;;;;;4.20;2.60;;;4.80;99.90;;;;;;5092187;28;20051;-81
2024/03/13 02:17:47;;;;;;;4.57;2.95;;;4.70;99.90;;;;;;5093987;28;20039;-80
2024/03/13 02:20:38;;;;;;;3.72;2.95;;;4.70;99.90;;;;;;5080197;27;20054;-80
2024/03/13 02:23:29;;;;;;;3.17;2.47;;;4.80;99.90;;;;;;5085468;28;20047;-78
2024/03/13 02:26:16;;;;;;;7.72;2.60;;;4.80;99.90;;;;;;5103076;27;20044;-80
2024/03/13 02:29:04;;;;;;;5.95;4.60;;;4.70;99.90;;;;;;5096297;27;20059;-81
2024/03/13 02:31:52;;;;;;;8.77;3.95;;;4.80;99.90;;;;;;5106130;27;20055;-80
2024/03/13 02:34:43;;;;;;;4.15;3.08;;;4.80;99.90;;;;;;5095737;28;20082;-80
2024/03/13 02:37:31;;;;;;;4.28;2.97;;;4.70;99.90;;;;;;5087677;27;20036;-79
2024/03/13 02:40:23;;;;;;;2.80;2.50;;;4.70;99.90;;;;;;5103890;27;20356;-79
2024/03/13 02:43:10;;;;;;;3.75;3.03;;;4.70;99.90;;;;;;5091871;28;20047;-80
2024/03/13 02:45:58;;;;;;;5.15;3.53;;;4.80;99.90;;;;;;5095925;27;20047;-80
2024/03/13 02:48:45;;;;;;;6.72;3.45;;;4.80;99.90;;;;;;5084511;28;20134;-80
2024/03/13 02:51:36;;;;;;;5.97;2.88;;;4.70;99.90;;;;;;5094822;28;20061;-79
2024/03/13 02:54:23;;;;;;;3.65;2.92;;;4.70;99.90;;;;;;5106687;27;20067;-80
2024/03/13 02:57:14;;;;;;;5.22;2.90;;;4.70;99.90;;;;;;5106002;27;20046;-79
2024/03/13 03:00:06;;;;;;;3.30;2.95;;;4.70;99.90;;;;;;5098745;28;20554;-80
2024/03/13 03:02:56;;;;;;;3.53;2.75;;;4.70;99.90;;;;;;5093230;28;20492;-80
2024/03/13 03:05:45;;;;;;;6.78;3.22;;;4.70;99.90;;;;;;5091366;28;20707;-80
2024/03/13 03:08:40;;;;;;;3.20;2.70;;;4.70;99.90;;;;;;5099909;27;20203;-79
2024/03/13 03:11:30;;;;;;;5.70;3.45;;;4.70;99.90;;;;;;5105151;27;20035;-79
2024/03/13 03:14:18;;;;;;;4.80;2.88;;;4.70;99.90;;;;;;5096918;27;20119;-78
2024/03/13 03:17:08;;;;;;;7.55;3.22;;;4.70;99.90;;;;;;5095715;27;20040;-78
2024/03/13 03:19:56;;;;;;;3.97;3.33;;;4.70;99.90;;;;;;5100930;28;20035;-79
2024/03/13 03:22:45;;;;;;;3.90;3.17;;;4.70;99.90;;;;;;5105952;27;20094;-78
2024/03/13 03:25:33;;;;;;;4.20;3.20;;;4.70;99.90;;;;;;5101211;27;20411;-77
2024/03/13 03:28:21;;;;;;;4.30;3.33;;;4.70;99.90;;;;;;5090287;28;20375;-79
2024/03/13 03:31:10;;;;;;;3.28;2.97;;;4.70;99.90;;;;;;5097627;28;20040;-81
2024/03/13 03:33:58;;;;;;;6.53;3.75;;;4.70;99.90;;;;;;5107432;28;20036;-81
2024/03/13 03:36:46;;;;;;;5.53;3.35;;;4.70;99.90;;;;;;5104529;27;20526;-79
2024/03/13 03:39:35;;;;;;;3.60;3.30;;;4.70;99.90;;;;;;5094245;28;20120;-80
2024/03/13 03:42:24;;;;;;;5.15;3.72;;;4.70;99.90;;;;;;5091703;28;20055;-79
2024/03/13 03:45:13;;;;;;;5.63;3.67;;;4.70;99.90;;;;;;5110493;27;20530;-80
2024/03/13 03:48:02;;;;;;;5.00;3.88;;;4.70;99.90;;;;;;5097681;28;20512;-79
2024/03/13 03:50:58;;;;;;;6.65;3.58;;;4.70;99.90;;;;;;5106181;28;20044;-80
2024/03/13 03:53:46;;;;;;;4.38;3.30;;;4.70;99.90;;;;;;5102005;28;20043;-79
2024/03/13 03:56:38;;;;;;;4.20;3.10;;;4.70;99.90;;;;;;5081380;28;20081;-80
2024/03/13 03:59:28;;;;;;;4.60;3.15;;;4.70;99.90;;;;;;5100116;28;20474;-81
2024/03/13 04:02:19;;;;;;;4.65;3.78;;;4.70;99.90;;;;;;5101247;27;20043;-80
2024/03/13 04:05:08;;;;;;;5.65;4.18;;;4.70;99.90;;;;;;5096791;27;20043;-79
2024/03/13 04:07:56;;;;;;;6.03;3.90;;;4.70;99.90;;;;;;5100041;28;20046;-80
2024/03/13 04:10:43;;;;;;;4.70;3.63;;;4.80;99.90;;;;;;5099697;27;20043;-81
2024/03/13 04:13:32;;;;;;;5.78;4.10;;;4.80;99.90;;;;;;5098405;28;20039;-81
2024/03/13 04:16:22;;;;;;;7.20;4.18;;;4.80;99.90;;;;;;5084938;28;20031;-80
2024/03/13 04:19:13;;;;;;;3.90;3.50;;;4.80;99.90;;;;;;5103870;27;20381;-78
2024/03/13 04:22:00;;;;;;;6.00;3.53;;;4.80;99.90;;;;;;5082772;27;20051;-79
2024/03/13 04:24:48;;;;;;;5.68;3.85;;;4.80;99.90;;;;;;5092949;28;20056;-78
2024/03/13 04:27:37;;;;;;;4.57;3.28;;;4.80;99.90;;;;;;5062368;28;20040;-81
2024/03/13 04:30:25;;;;;;;3.85;3.33;;;4.80;99.90;;;;;;5104617;28;20039;-80
2024/03/13 04:33:16;;;;;;;4.72;3.42;;;4.80;99.90;;;;;;5111408;28;20125;-80
2024/03/13 04:36:06;;;;;;;5.25;3.10;;;4.80;99.90;;;;;;5092987;27;20070;-80
2024/03/13 04:38:54;;;;;;;5.53;3.15;;;4.80;99.90;;;;;;5109012;28;20035;-81
2024/03/13 04:41:42;;;;;;;4.20;3.53;;;4.80;99.90;;;;;;5099108;27;20051;-78
2024/03/13 04:44:31;;;;;;;6.95;4.00;;;4.80;99.90;;;;;;5084442;28;20044;-80
2024/03/13 04:47:22;;;;;;;5.72;4.07;;;4.80;99.90;;;;;;5099792;28;20334;-79
2024/03/13 04:50:09;;;;;;;4.85;4.13;;;4.90;99.90;;;;;;5096027;28;20032;-79
2024/03/13 04:52:57;;;;;;;7.25;5.05;;;4.90;99.90;;;;;;5105643;27;20035;-80
2024/03/13 04:55:45;;;;;;;5.53;4.78;;;4.80;99.90;;;;;;5085081;28;20770;-80
2024/03/13 04:58:34;;;;;;;6.05;4.60;;;4.90;99.90;;;;;;5098266;28;20130;-80
2024/03/13 05:01:26;;;;;;;5.57;4.25;;;4.90;99.90;;;;;;5103427;27;20063;-79
2024/03/13 05:04:23;;;;;;;5.80;4.07;;;4.90;99.90;;;;;;5095702;28;20415;-81
2024/03/13 05:07:15;;;;;;;4.55;3.88;;;4.90;99.90;;;;;;5079986;28;20067;-81
2024/03/13 05:10:06;;;;;;;5.80;4.28;;;4.90;99.90;;;;;;5102868;27;20101;-82
2024/03/13 05:12:55;;;;;;;5.28;4.32;;;5.00;99.90;;;;;;5099153;28;20044;-78
2024/03/13 05:15:44;;;;;;;5.35;3.90;;;4.90;99.90;;;;;;5085291;28;20697;-81
2024/03/13 05:18:32;;;;;;;5.53;4.22;;;5.00;99.90;;;;;;5103557;28;20051;-78
2024/03/13 05:21:19;;;;;;;4.97;3.75;;;5.00;99.90;;;;;;5102424;28;20193;-79
2024/03/13 05:24:07;;;;;;;6.05;4.40;;;5.00;99.90;;;;;;5101785;28;20046;-79
2024/03/13 05:26:55;;;;;;;5.28;4.50;;;5.00;99.90;;;;;;5090576;28;20044;-79
2024/03/13 05:29:44;;;;;;;5.78;4.47;;;5.00;99.90;;;;;;5092974;28;20087;-80
2024/03/13 05:32:32;;;;;;;7.03;4.60;;;5.10;99.90;;;;;;5093709;28;20515;-80
2024/03/13 05:35:19;;;;;;;6.65;4.55;;;5.10;99.90;;;;;;5099436;28;20040;-81
2024/03/13 05:38:08;;;;;;;4.82;4.10;;;5.10;99.90;;;;;;5115960;27;20107;-81
2024/03/13 05:40:58;;;;;;;6.15;4.68;;;5.10;99.90;;;;;;5115225;28;20062;-81
2024/03/13 05:43:50;;;;;;;5.15;4.13;;;5.10;99.90;;;;;;5108755;28;20568;-81
2024/03/13 05:46:38;;;;;;;5.82;4.22;;;5.10;99.90;;;;;;5085913;28;20134;-81
2024/03/13 05:49:25;;;;;;;5.95;4.20;;;5.10;99.90;;;;;;5078558;28;20063;-82
2024/03/13 05:52:14;;;;;;;4.78;3.70;;;5.20;99.90;;;;;;5084702;28;20059;-82
2024/03/13 05:55:03;;;;;;;5.88;4.10;;;5.20;99.90;;;;;;5099016;28;20048;-81
2024/03/13 05:57:51;;;;;;;4.97;3.50;;;5.20;99.90;;;;;;5104438;27;20051;-82
2024/03/13 06:00:41;;;;;;;5.68;3.33;;;5.20;99.90;;;;;;5101599;27;20208;-79
2024/03/13 06:03:31;;;;;;;4.40;3.78;;;5.20;99.90;;;;;;5084547;27;20051;-81
2024/03/13 06:06:22;;;;;;;8.05;5.15;;;5.20;99.90;;;;;;5098524;27;20062;-79
2024/03/13 06:09:09;;;;;;;7.85;4.95;;;5.20;99.90;;;;;;5103883;27;20044;-80
2024/03/13 06:12:03;;;;;;;9.85;5.65;;;5.20;99.90;;;;;;5106842;27;20508;-80
2024/03/13 06:14:50;;;;;;;13.93;6.47;;;5.20;99.90;;;;;;5087350;28;20039;-80
2024/03/13 06:17:38;;;;;;;8.93;6.50;;;5.20;99.90;;;;;;5099444;27;20043;-80
2024/03/13 06:20:25;;;;;;;10.00;7.00;;;5.20;99.90;;;;;;5100725;27;20050;-79
2024/03/13 06:23:16;;;;;;;12.70;7.50;;;5.30;99.90;;;;;;5100835;28;20089;-81
2024/03/13 06:26:07;;;;;;;12.95;8.00;;;5.30;99.90;;;;;;5086679;27;20102;-80
2024/03/13 06:32:06;;;;;;;11.25;7.88;;;5.40;99.90;;;;;;5094880;27;20042;-80
2024/03/13 06:34:54;;;;;;;12.82;8.25;;;5.50;99.90;;;;;;5085086;27;20512;-80
2024/03/13 06:37:42;;;;;;;14.50;9.02;;;5.60;99.90;;;;;;5086526;28;20063;-80
2024/03/13 06:40:34;;;;;;;16.27;9.65;;;5.60;99.90;;;;;;5104625;28;20471;-80
2024/03/13 06:43:24;;;;;;;15.02;9.93;;;5.60;99.90;;;;;;5102574;28;20051;-82
2024/03/13 06:46:11;;;;;;;18.35;12.40;;;5.60;99.90;;;;;;5101931;27;20130;-80
2024/03/13 06:48:59;;;;;;;18.10;12.80;;;5.60;99.90;;;;;;5113078;27;20039;-79
2024/03/13 06:51:48;;;;;;;25.23;16.05;;;5.70;99.90;;;;;;5109676;27;20079;-79
2024/03/13 06:54:37;;;;;;;19.85;11.68;;;5.70;99.90;;;;;;5109590;27;20043;-79
2024/03/13 06:57:29;;;;;;;18.20;12.40;;;5.80;99.90;;;;;;5121689;27;20032;-80
2024/03/13 07:00:18;;;;;;;17.10;11.15;;;5.80;99.90;;;;;;5120627;27;20023;-78
2024/03/13 07:03:07;;;;;;;20.08;11.65;;;5.80;99.90;;;;;;5112007;28;20040;-78
2024/03/13 07:05:55;;;;;;;19.70;11.93;;;5.90;99.90;;;;;;5118324;27;20044;-77
2024/03/13 07:08:42;;;;;;;19.27;12.80;;;5.90;99.90;;;;;;5119479;27;20031;-80
2024/03/13 07:11:30;;;;;;;18.05;12.43;;;6.00;99.90;;;;;;5118581;27;20047;-78
2024/03/13 07:14:18;;;;;;;19.13;12.45;;;6.00;99.90;;;;;;5118950;27;20107;-81
2024/03/13 07:17:06;;;;;;;21.23;12.32;;;6.00;99.90;;;;;;5101980;28;20036;-81
2024/03/13 07:19:55;;;;;;;21.80;14.10;;;6.00;99.90;;;;;;5096227;28;20154;-80
2024/03/13 07:22:45;;;;;;;17.75;11.13;;;6.00;99.90;;;;;;5088603;27;20246;-80
2024/03/13 07:25:32;;;;;;;16.63;11.48;;;6.10;99.90;;;;;;5086073;27;20460;-80
2024/03/13 07:28:20;;;;;;;12.50;9.63;;;6.10;99.90;;;;;;5084061;28;20127;-81
2024/03/13 07:31:08;;;;;;;11.00;8.23;;;6.20;99.90;;;;;;5097314;27;20097;-80
2024/03/13 07:33:58;;;;;;;17.15;10.55;;;6.30;99.90;;;;;;5095191;27;20123;-79
2024/03/13 07:36:47;;;;;;;14.52;10.90;;;6.40;99.90;;;;;;5091757;27;20146;-80
2024/03/13 07:39:34;;;;;;;10.90;8.23;;;6.50;99.90;;;;;;5095453;27;20123;-78
2024/03/13 07:42:22;;;;;;;9.63;7.53;;;6.50;99.90;;;;;;5102223;27;20039;-80
2024/03/13 07:45:14;;;;;;;6.45;5.15;;;6.70;99.90;;;;;;5094683;27;20050;-80
2024/03/13 07:48:03;;;;;;;5.60;4.68;;;6.70;99.90;;;;;;5099580;27;20091;-80
2024/03/13 07:50:50;;;;;;;6.97;4.95;;;6.80;99.90;;;;;;5087032;27;20059;-79
2024/03/13 07:53:39;;;;;;;4.72;4.13;;;6.90;99.90;;;;;;5083126;28;20435;-79
2024/03/13 07:56:26;;;;;;;4.30;3.90;;;6.90;99.90;;;;;;5096011;27;20047;-78
2024/03/13 07:59:14;;;;;;;5.18;4.35;;;6.90;99.90;;;;;;5096906;27;20040;-79
2024/03/13 08:02:02;;;;;;;4.97;3.33;;;7.00;99.90;;;;;;5073037;28;20705;-81
2024/03/13 08:04:50;;;;;;;3.63;3.00;;;6.90;99.90;;;;;;5097394;27;20385;-79
2024/03/13 08:07:44;;;;;;;3.65;3.22;;;6.90;99.90;;;;;;5092882;27;20051;-81
2024/03/13 08:10:50;;;;;;;3.88;3.47;;;6.90;99.90;;;;;;5094578;27;20110;-80
2024/03/13 08:13:55;;;;;;;3.92;3.15;;;7.00;99.90;;;;;;5098745;27;20043;-81
2024/03/13 08:17:00;;;;;;;5.28;3.22;;;7.00;99.90;;;;;;5094705;27;20032;-81
2024/03/13 08:20:06;;;;;;;3.63;2.83;;;7.00;99.90;;;;;;5084787;27;20062;-81
2024/03/13 08:23:11;;;;;;;3.53;3.22;;;7.00;99.90;;;;;;5100177;27;20499;-78
2024/03/13 08:26:18;;;;;;;5.40;4.30;;;7.10;99.90;;;;;;5080464;27;20042;-79
2024/03/13 08:29:24;;;;;;;4.57;3.70;;;7.10;99.90;;;;;;5092353;27;20031;-80
2024/03/13 08:32:29;;;;;;;6.03;3.70;;;7.10;99.90;;;;;;5096282;28;20031;-82
2024/03/13 08:35:34;;;;;;;3.08;2.65;;;7.10;99.90;;;;;;5087078;28;20044;-80
2024/03/13 08:38:39;;;;;;;4.28;3.85;;;7.10;99.90;;;;;;5103618;27;20103;-80
2024/03/13 08:41:44;;;;;;;3.90;3.50;;;7.10;99.90;;;;;;5090436;27;20046;-81
2024/03/13 08:44:50;;;;;;;4.35;3.83;;;7.20;99.90;;;;;;5092039;28;20435;-80
2024/03/13 08:47:55;;;;;;;6.85;3.85;;;7.20;99.90;;;;;;5092475;28;20401;-83
2024/03/13 08:51:03;;;;;;;5.93;5.00;;;7.30;99.90;;;;;;5091532;28;20027;-80
2024/03/13 08:54:11;;;;;;;4.90;4.13;;;7.40;99.90;;;;;;5106261;27;20031;-79
2024/03/13 08:57:17;;;;;;;3.83;3.53;;;7.40;99.90;;;;;;5102434;27;20081;-81
2024/03/13 09:00:22;;;;;;;4.15;3.80;;;7.40;99.90;;;;;;5093179;27;20126;-78
2024/03/13 09:03:27;;;;;;;5.18;3.42;;;7.40;99.90;;;;;;5117497;27;20558;-77
2024/03/13 09:06:33;;;;;;;3.50;3.20;;;7.40;99.90;;;;;;5108406;28;20097;-78
2024/03/13 09:09:23;;;;;;;3.47;2.95;;;7.40;99.90;;;;;;5104117;27;20102;-79
2024/03/13 09:12:13;;;;;;;3.13;2.83;;;7.50;99.90;;;;;;5102607;28;20046;-81
2024/03/13 09:15:05;;;;;;;3.15;2.85;;;7.60;99.90;;;;;;5108115;27;20075;-78
2024/03/13 09:17:53;;;;;;;3.00;2.53;;;7.70;99.90;;;;;;5091322;28;20043;-80
2024/03/13 09:20:41;;;;;;;4.00;3.20;;;7.80;99.90;;;;;;5085303;28;20043;-81
2024/03/13 09:23:29;;;;;;;3.65;2.75;;;7.90;99.90;;;;;;5094321;28;20753;-81
2024/03/13 09:26:20;;;;;;;3.13;2.78;;;8.10;99.90;;;;;;5093247;28;20054;-84
2024/03/13 09:29:08;;;;;;;2.63;2.42;;;8.20;99.90;;;;;;5099645;28;20048;-83
2024/03/13 09:31:56;;;;;;;2.83;2.55;;;8.40;99.90;;;;;;5110722;27;20048;-78
2024/03/13 09:34:51;;;;;;;2.70;2.50;;;8.50;99.90;;;;;;5116348;28;20040;-82
2024/03/13 09:37:41;;;;;;;2.30;2.10;;;8.70;99.90;;;;;;5101388;28;20077;-79
2024/03/13 09:40:29;;;;;;;2.40;2.20;;;8.60;99.90;;;;;;5102871;27;20047;-80
2024/03/13 09:43:24;;;;;;;2.63;2.30;;;8.60;99.90;;;;;;5098230;27;20043;-80
2024/03/13 09:46:13;;;;;;;5.07;2.80;;;8.60;99.90;;;;;;5098227;27;20039;-80
2024/03/13 09:49:02;;;;;;;2.88;2.67;;;8.70;99.90;;;;;;5102770;27;20443;-82
2024/03/13 09:51:57;;;;;;;3.70;2.30;;;8.80;99.90;;;;;;5112907;27;20050;-80
2024/03/13 09:54:47;;;;;;;4.18;3.22;;;8.90;99.90;;;;;;5109974;27;20050;-80
2024/03/13 09:57:35;;;;;;;2.72;2.53;;;9.20;99.90;;;;;;5089485;27;20491;-82
2024/03/13 10:00:23;;;;;;;3.88;2.53;;;9.30;99.90;;;;;;5108654;27;20357;-80
2024/03/13 10:03:27;;;;;;;3.38;2.63;;;9.50;99.90;;;;;;5097264;27;20067;-81
2024/03/13 10:06:15;;;;;;;3.60;2.70;;;9.70;99.90;;;;;;5093700;27;20393;-80
2024/03/13 10:09:12;;;;;;;3.35;2.72;;;9.70;99.90;;;;;;5098735;27;20039;-80
2024/03/13 10:12:10;;;;;;;2.97;2.78;;;9.80;99.90;;;;;;5106188;27;20127;-81
2024/03/13 10:14:58;;;;;;;2.78;2.42;;;9.80;99.90;;;;;;5100975;28;20051;-79
2024/03/13 10:17:54;;;;;;;2.60;2.40;;;9.60;99.90;;;;;;5101957;28;20214;-81
2024/03/13 10:21:28;;;;;;;3.28;2.42;;;9.50;99.90;;;;;;5082887;28;20461;-80
2024/03/13 10:24:18;;;;;;;2.50;2.30;;;9.80;99.90;;;;;;5055798;28;20040;-78
2024/03/13 10:27:10;;;;;;;2.40;2.13;;;9.90;99.90;;;;;;5086929;27;20042;-80
2024/03/13 10:29:58;;;;;;;2.38;2.17;;;10.00;99.90;;;;;;5094048;28;20063;-80
2024/03/13 10:32:47;;;;;;;2.75;1.92;;;9.90;99.90;;;;;;5100292;27;20082;-82
2024/03/13 10:35:36;;;;;;;1.92;1.80;;;10.10;99.90;;;;;;5108724;27;20043;-81
2024/03/13 10:38:33;;;;;;;2.30;2.10;;;10.10;99.90;;;;;;5092353;28;20036;-82
2024/03/13 10:41:21;;;;;;;2.35;2.15;;;10.10;99.90;;;;;;5084056;28;20141;-79
2024/03/13 10:44:09;;;;;;;3.55;2.17;;;10.30;99.90;;;;;;5086186;27;20213;-80
2024/03/13 10:46:57;;;;;;;2.45;1.90;;;10.40;99.90;;;;;;5093391;27;20044;-79
2024/03/13 10:49:50;;;;;;;2.73;1.70;;;10.50;99.90;;;;;;5093917;27;20185;-81
2024/03/13 10:52:39;;;;;;;2.38;1.65;;;10.70;99.90;;;;;;5085364;28;20104;-81
2024/03/13 10:55:27;;;;;;;4.55;1.90;;;11.10;99.90;;;;;;5099759;27;20050;-80
2024/03/13 10:58:20;;;;;;;2.08;1.90;;;11.00;99.90;;;;;;5085740;27;20036;-80
2024/03/13 11:01:16;;;;;;;1.80;1.70;;;11.10;99.90;;;;;;5109540;27;20057;-80
2024/03/13 11:04:07;;;;;;;1.83;1.70;;;11.20;99.90;;;;;;5074378;28;20702;-80
2024/03/13 11:06:55;;;;;;;5.57;2.20;;;11.20;99.90;;;;;;5095661;27;20043;-80
2024/03/13 11:09:43;;;;;;;1.80;1.70;;;10.90;99.90;;;;;;5092581;28;20052;-80
2024/03/13 11:12:32;;;;;;;2.10;1.70;;;10.90;99.90;;;;;;5096359;28;20040;-81
2024/03/13 11:15:23;;;;;;;6.35;2.03;;;10.80;99.90;;;;;;5091907;27;20075;-76
2024/03/13 11:18:15;;;;;;;2.45;1.65;;;10.80;99.90;;;;;;5109253;27;20131;-81
2024/03/13 11:21:09;;;;;;;2.95;1.65;;;10.70;99.90;;;;;;5094956;28;20182;-77
2024/03/13 11:24:02;;;;;;;2.17;2.00;;;10.80;99.90;;;;;;5105695;27;20404;-80
2024/03/13 11:26:52;;;;;;;2.58;2.38;;;10.80;99.90;;;;;;5089264;27;20063;-81
2024/03/13 11:29:45;;;;;;;2.08;1.88;;;10.70;99.90;;;;;;5090421;27;20051;-81
2024/03/13 11:32:35;;;;;;;3.35;2.15;;;10.70;99.90;;;;;;5096604;28;20046;-80
2024/03/13 11:35:23;;;;;;;3.97;2.45;;;10.70;99.90;;;;;;5093437;28;20051;-79
2024/03/13 11:38:12;;;;;;;3.97;2.10;;;10.80;99.90;;;;;;5091812;28;20067;-81
2024/03/13 11:41:00;;;;;;;4.25;1.90;;;10.90;99.90;;;;;;5097977;27;20046;-82
2024/03/13 11:43:49;;;;;;;2.22;1.80;;;11.10;99.90;;;;;;5091341;28;20048;-81
2024/03/13 11:46:44;;;;;;;4.25;2.17;;;11.20;99.90;;;;;;5101650;28;20052;-79
2024/03/13 11:49:34;;;;;;;2.13;1.40;;;11.30;99.90;;;;;;5097433;27;20043;-80
2024/03/13 11:52:22;;;;;;;1.40;1.30;;;11.40;99.90;;;;;;5088574;27;20453;-81
2024/03/13 11:55:29;;;;;;;2.65;1.85;;;11.30;99.90;;;;;;5093143;28;20036;-80
2024/03/13 11:58:20;;;;;;;3.20;1.92;;;11.50;99.90;;;;;;5084688;28;20543;-80
2024/03/13 12:01:13;;;;;;;2.00;1.52;;;11.60;99.90;;;;;;5094285;27;20032;-81
2024/03/13 12:04:05;;;;;;;3.95;1.48;;;11.70;99.90;;;;;;5098442;28;20031;-82
2024/03/13 12:06:55;;;;;;;3.53;1.85;;;11.80;99.90;;;;;;5102050;28;20067;-82
2024/03/13 12:09:46;;;;;;;2.53;1.83;;;11.60;99.90;;;;;;5087718;28;20122;-82
2024/03/13 12:12:33;;;;;;;2.47;1.73;;;11.30;29.40;;;;;;5102055;27;20040;-82
2024/03/13 12:15:23;;;;;;;2.08;1.33;;;11.20;1.00;;;;;;5107969;27;20039;-80
2024/03/13 12:18:12;;;;;;;2.17;1.80;;;11.20;23.60;;;;;;5109033;27;20587;-80
2024/03/13 12:21:01;;;;;;;2.83;1.75;;;11.40;99.90;;;;;;5103060;27;20042;-81
2024/03/13 12:23:49;;;;;;;1.00;0.95;;;11.70;99.90;;;;;;5078078;28;20047;-80
2024/03/13 12:26:36;;;;;;;0.98;0.90;;;11.90;99.90;;;;;;5076691;27;20052;-81
2024/03/13 12:29:27;;;;;;;3.42;1.05;;;12.30;99.90;;;;;;5083948;27;20040;-81
2024/03/13 12:32:15;;;;;;;3.20;1.20;;;12.60;99.90;;;;;;5100661;27;20036;-80
2024/03/13 12:35:07;;;;;;;2.00;0.60;;;12.80;99.90;;;;;;5097250;28;20044;-81
2024/03/13 12:37:57;;;;;;;0.82;0.82;;;13.10;1.00;;;;;;5092470;28;20047;-81
2024/03/13 12:40:46;;;;;;;2.67;0.70;;;13.40;7.60;;;;;;5093764;27;20213;-80
2024/03/13 12:43:34;;;;;;;0.95;0.70;;;13.80;3.40;;;;;;5095350;27;20048;-81
2024/03/13 12:46:21;;;;;;;0.75;0.60;;;14.30;99.90;;;;;;5095264;27;20346;-80
2024/03/13 12:49:13;;;;;;;0.60;0.60;;;14.20;99.90;;;;;;5085430;27;20130;-81
2024/03/13 12:52:06;;;;;;;1.15;0.82;;;13.70;99.90;;;;;;5101238;27;20043;-81
2024/03/13 12:54:56;;;;;;;;;;;13.60;1.00;;;;;;5079921;28;20040;-79
2024/03/13 12:57:43;;;;;;;0.85;0.60;;;13.70;1.00;;;;;;5107913;28;20334;-82
2024/03/13 13:00:32;;;;;;;0.50;0.50;;;13.60;99.90;;;;;;5100743;27;20054;-80
2024/03/13 13:03:22;;;;;;;2.95;0.70;;;13.60;99.90;;;;;;5108691;27;20054;-79
2024/03/13 13:06:13;;;;;;;1.20;0.70;;;13.30;7.90;;;;;;5093619;27;20046;-82
2024/03/13 13:09:09;;;;;;;1.73;0.60;;;12.90;1.00;;;;;;5094328;28;20044;-80
2024/03/13 13:11:57;;;;;;;4.97;1.13;;;12.50;51.30;;;;;;5108095;27;20080;-79
2024/03/13 13:14:45;;;;;;;0.63;0.50;;;12.20;99.90;;;;;;5101853;27;20534;-81
2024/03/13 13:17:34;;;;;;;1.05;0.80;;;11.80;99.90;;;;;;5113374;28;20044;-79
2024/03/13 13:20:25;;;;;;;0.50;0.50;;;11.60;99.90;;;;;;5103164;28;20108;-79
2024/03/13 13:23:13;;;;;;;1.02;0.60;;;11.50;1.00;;;;;;5100185;28;20055;-81
2024/03/13 13:26:01;;;;;;;0.57;0.52;;;11.60;99.90;;;;;;5093241;28;20043;-80
2024/03/13 13:28:49;;;;;;;1.48;0.70;;;11.60;99.90;;;;;;5085414;28;20040;-80
2024/03/13 13:31:37;;;;;;;0.60;0.60;;;11.60;1.00;;;;;;5096295;28;20039;-83
2024/03/13 13:34:24;;;;;;;0.55;0.55;;;11.70;6.80;;;;;;5097309;28;20040;-78
2024/03/13 13:37:12;;;;;;;0.80;0.60;;;12.00;99.90;;;;;;5085953;28;20035;-80
2024/03/13 13:40:05;;;;;;;1.20;0.93;;;12.30;99.90;;;;;;5111475;27;20035;-79
2024/03/13 13:42:54;;;;;;;1.15;0.50;;;12.50;99.90;;;;;;5091262;28;20044;-80
2024/03/13 13:45:44;;;;;;;0.57;0.38;;;12.60;99.90;;;;;;5097012;28;20059;-80
2024/03/13 13:48:33;;;;;;;0.90;0.40;;;12.40;1.00;;;;;;5102621;28;20048;-81
2024/03/13 13:51:20;;;;;;;0.70;0.50;;;12.40;1.00;;;;;;5081236;28;20044;-81
2024/03/13 13:54:08;;;;;;;0.60;0.57;;;12.40;99.90;;;;;;5098486;28;20126;-81
2024/03/13 13:56:56;;;;;;;8.23;0.68;;;12.60;99.90;;;;;;5100909;28;20423;-80
2024/03/13 13:59:45;;;;;;;1.35;0.50;;;12.70;90.90;;;;;;5081824;28;20035;-80
2024/03/13 14:02:33;;;;;;;1.23;0.82;;;12.60;1.00;;;;;;5096850;28;20052;-81
2024/03/13 14:05:26;;;;;;;1.15;0.77;;;12.60;1.00;;;;;;5097092;28;20046;-79
2024/03/13 14:08:15;;;;;;;1.33;0.80;;;12.40;99.90;;;;;;5090801;28;20039;-79
2024/03/13 14:11:06;;;;;;;0.82;0.63;;;12.20;99.90;;;;;;5094461;28;20302;-83
2024/03/13 14:13:55;;;;;;;0.63;0.63;;;12.10;99.90;;;;;;5087910;28;20468;-81
2024/03/13 14:16:42;;;;;;;1.13;0.85;;;12.00;99.90;;;;;;5088284;28;20039;-81
2024/03/13 14:19:30;;;;;;;0.60;0.60;;;11.80;99.90;;;;;;5101478;28;20122;-79
2024/03/13 14:22:17;;;;;;;4.03;2.45;;;11.70;99.90;;;;;;5095408;28;20140;-81
2024/03/13 14:25:05;;;;;;;1.20;1.10;;;11.60;99.90;;;;;;5103047;28;20438;-77
2024/03/13 14:27:53;;;;;;;1.20;1.10;;;11.40;99.90;;;;;;5096517;27;20096;-79
2024/03/13 14:30:44;;;;;;;1.20;0.77;;;11.30;99.90;;;;;;5090904;27;20047;-79
2024/03/13 14:33:36;;;;;;;0.80;0.80;;;11.00;1.00;;;;;;5103831;27;20044;-80
2024/03/13 14:36:27;;;;;;;1.50;1.00;;;10.90;1.00;;;;;;5097123;28;20098;-78
2024/03/13 14:39:16;;;;;;;2.75;0.80;;;10.80;99.90;;;;;;5100434;28;20093;-79
2024/03/13 14:42:05;;;;;;;2.17;1.20;;;10.80;99.90;;;;;;5086281;27;20104;-79
2024/03/13 14:45:07;;;;;;;2.28;1.20;;;11.00;1.00;;;;;;5104308;28;20044;-80
2024/03/13 14:47:55;;;;;;;2.85;1.70;;;11.20;99.90;;;;;;5103812;27;20046;-76
2024/03/13 14:50:43;;;;;;;3.45;1.40;;;11.40;99.90;;;;;;5083028;27;20052;-78
2024/03/13 14:53:31;;;;;;;2.83;1.52;;;11.70;99.90;;;;;;5097962;27;20040;-80
2024/03/13 14:56:19;;;;;;;1.95;1.17;;;11.90;99.90;;;;;;5090620;28;20067;-80
2024/03/13 14:59:08;;;;;;;4.13;1.75;;;12.10;99.90;;;;;;5085920;27;20119;-79
2024/03/13 15:01:55;;;;;;;4.07;2.17;;;12.30;64.20;;;;;;5103095;28;20133;-81
2024/03/13 15:04:44;;;;;;;4.55;2.03;;;12.30;1.00;;;;;;5097537;27;20053;-79
2024/03/13 15:07:33;;;;;;;3.58;2.05;;;12.20;99.90;;;;;;5081887;28;20054;-79
2024/03/13 15:10:25;;;;;;;2.40;2.00;;;12.00;1.00;;;;;;5100266;27;20074;-80
2024/03/13 15:13:13;;;;;;;3.72;2.53;;;11.80;1.00;;;;;;5098365;28;20055;-79
2024/03/13 15:16:01;;;;;;;4.15;2.40;;;11.70;99.90;;;;;;5079406;28;20427;-79
2024/03/13 15:18:49;;;;;;;3.70;2.67;;;11.80;99.90;;;;;;5089260;28;20845;-79